Time;durP1;ratioP1;P1;durP2;ratioP2;P2;SDS_P1;SDS_P2;PMS_P1;PMS_P2;Temp;Humidity;BMP_temperature;BMP_pressure;BME280_temperature;BME280_humidity;BME280_pressure;Samples;Min_cycle;Max_cycle;Signal;HPM_P1;HPM_P2
2023/05/28 00:00:44;;;;;;;7.33;2.57;;;11.20;99.90;;;;;;4979803;28;20184;-86
2023/05/28 00:03:10;;;;;;;3.03;2.73;;;11.20;99.90;;;;;;4995060;28;20664;-89
2023/05/28 00:05:36;;;;;;;6.27;2.70;;;11.30;99.90;;;;;;4979159;28;20669;-89
2023/05/28 00:08:02;;;;;;;4.53;3.47;;;11.30;99.90;;;;;;4995101;28;20222;-89
2023/05/28 00:10:28;;;;;;;6.30;2.87;;;11.40;99.90;;;;;;4977030;28;20218;-87
2023/05/28 00:12:53;;;;;;;3.97;1.97;;;11.40;99.90;;;;;;4993501;28;20625;-88
2023/05/28 00:15:19;;;;;;;5.47;1.87;;;11.40;99.90;;;;;;4993136;28;20226;-88
2023/05/28 00:17:45;;;;;;;4.67;2.40;;;11.50;99.90;;;;;;4960981;28;20289;-88
2023/05/28 00:20:11;;;;;;;3.47;2.23;;;11.50;99.90;;;;;;4992969;28;20440;-89
2023/05/28 00:22:38;;;;;;;4.23;2.93;;;11.40;99.90;;;;;;4992776;28;20239;-90
2023/05/28 00:25:04;;;;;;;10.63;3.00;;;11.30;99.90;;;;;;4977071;28;20176;-87
2023/05/28 00:27:30;;;;;;;2.70;1.97;;;11.20;99.90;;;;;;4993855;28;20188;-88
2023/05/28 00:29:56;;;;;;;2.50;1.97;;;10.90;99.90;;;;;;4977083;28;20285;-86
2023/05/28 00:32:22;;;;;;;4.53;3.03;;;10.80;99.90;;;;;;4976350;28;20219;-86
2023/05/28 00:34:47;;;;;;;4.10;2.37;;;10.70;99.90;;;;;;4976110;28;20809;-87
2023/05/28 00:37:13;;;;;;;2.13;1.50;;;10.70;99.90;;;;;;4993039;28;20192;-87
2023/05/28 00:39:40;;;;;;;7.53;2.20;;;10.80;99.90;;;;;;4977247;28;20685;-90
2023/05/28 00:42:08;;;;;;;1.60;1.47;;;10.80;99.90;;;;;;4976626;28;20219;-86
2023/05/28 00:44:34;;;;;;;5.67;2.47;;;10.70;99.90;;;;;;4993025;28;20272;-88
2023/05/28 00:47:01;;;;;;;7.07;2.67;;;10.50;99.90;;;;;;4993834;28;20219;-87
2023/05/28 00:49:27;;;;;;;8.17;3.97;;;10.50;99.90;;;;;;4977520;28;20219;-88
2023/05/28 00:51:56;;;;;;;3.10;2.40;;;10.70;99.90;;;;;;4962082;28;20263;-88
2023/05/28 00:54:23;;;;;;;3.87;2.30;;;10.80;99.90;;;;;;5016064;28;20203;-87
2023/05/28 00:56:48;;;;;;;4.23;3.30;;;10.90;99.90;;;;;;5006303;28;20379;-89
2023/05/28 00:59:16;;;;;;;6.97;3.47;;;10.90;99.90;;;;;;5004546;28;20706;-87
2023/05/28 01:01:43;;;;;;;4.33;3.93;;;10.90;99.90;;;;;;4973401;28;20235;-88
2023/05/28 01:04:08;;;;;;;6.70;4.10;;;10.90;99.90;;;;;;5016648;28;20262;-86
2023/05/28 01:06:38;;;;;;;6.53;3.53;;;11.00;99.90;;;;;;4981411;28;20226;-87
2023/05/28 01:09:05;;;;;;;11.07;2.93;;;11.00;99.90;;;;;;4981532;28;20227;-86
2023/05/28 01:11:31;;;;;;;12.60;5.77;;;11.00;99.90;;;;;;4964302;28;20215;-85
2023/05/28 01:13:57;;;;;;;10.77;5.10;;;11.00;99.90;;;;;;4980433;28;20441;-87
2023/05/28 01:16:23;;;;;;;7.97;5.13;;;11.10;99.90;;;;;;4979097;28;20211;-86
2023/05/28 01:18:54;;;;;;;7.73;4.20;;;11.10;99.90;;;;;;4994898;28;20222;-86
2023/05/28 01:21:27;;;;;;;6.17;4.03;;;11.20;99.90;;;;;;4977358;28;20223;-87
2023/05/28 01:23:54;;;;;;;9.20;4.97;;;11.20;99.90;;;;;;4977048;28;20223;-89
2023/05/28 01:26:21;;;;;;;6.00;3.67;;;11.20;99.90;;;;;;4959953;28;20247;-86
2023/05/28 01:28:48;;;;;;;6.93;3.37;;;11.20;99.90;;;;;;4975842;28;20227;-87
2023/05/28 01:31:15;;;;;;;7.60;3.67;;;11.10;99.90;;;;;;5008955;28;20180;-87
2023/05/28 01:33:42;;;;;;;7.90;4.03;;;11.10;99.90;;;;;;4976252;28;20237;-89
2023/05/28 01:36:21;;;;;;;12.87;3.80;;;11.20;99.90;;;;;;5009243;28;20289;-87
2023/05/28 01:38:49;;;;;;;7.00;2.87;;;11.20;99.90;;;;;;5010465;28;20226;-87
2023/05/28 01:41:16;;;;;;;6.70;4.17;;;11.20;99.90;;;;;;5010518;28;20223;-89
2023/05/28 01:43:42;;;;;;;4.43;2.53;;;11.20;99.90;;;;;;5012194;28;20438;-89
2023/05/28 01:46:09;;;;;;;6.17;3.20;;;11.20;99.90;;;;;;5006117;28;20466;-88
2023/05/28 01:48:36;;;;;;;9.50;2.87;;;11.20;99.90;;;;;;4976928;28;20571;-88
2023/05/28 01:51:02;;;;;;;8.63;3.13;;;11.10;99.90;;;;;;4976356;28;20219;-88
2023/05/28 01:53:28;;;;;;;5.07;2.63;;;11.00;99.90;;;;;;4976021;28;20222;-88
2023/05/28 01:55:55;;;;;;;7.73;3.20;;;10.50;99.90;;;;;;4981726;28;20687;-88
2023/05/28 01:58:22;;;;;;;4.63;2.50;;;10.50;99.90;;;;;;5011260;28;20287;-89
2023/05/28 02:01:11;;;;;;;10.47;5.43;;;10.60;99.90;;;;;;5013751;28;20182;-88
2023/05/28 02:03:37;;;;;;;5.60;3.50;;;10.60;99.90;;;;;;5017878;28;20222;-88
2023/05/28 02:06:03;;;;;;;6.97;3.97;;;10.60;99.90;;;;;;4992805;28;20696;-88
2023/05/28 02:08:29;;;;;;;7.10;3.47;;;10.60;99.90;;;;;;4974537;28;20218;-88
2023/05/28 02:10:55;;;;;;;7.00;2.87;;;10.60;99.90;;;;;;4958973;28;20699;-87
2023/05/28 02:13:21;;;;;;;5.63;3.33;;;10.50;99.90;;;;;;4975567;28;20223;-87
2023/05/28 02:15:46;;;;;;;11.07;3.83;;;10.50;99.90;;;;;;4992337;28;20758;-87
2023/05/28 02:18:12;;;;;;;6.77;3.17;;;10.50;99.90;;;;;;4959740;28;20735;-87
2023/05/28 02:20:38;;;;;;;11.63;3.30;;;10.40;99.90;;;;;;4974498;28;20231;-88
2023/05/28 02:23:04;;;;;;;4.80;3.73;;;10.40;99.90;;;;;;4975663;28;20241;-86
2023/05/28 02:25:30;;;;;;;6.33;3.97;;;10.40;99.90;;;;;;4975655;28;20218;-87
2023/05/28 02:27:56;;;;;;;8.40;4.23;;;10.30;99.90;;;;;;4991694;28;20251;-87
2023/05/28 02:30:21;;;;;;;3.30;2.87;;;10.30;99.90;;;;;;4960624;28;20195;-88
2023/05/28 02:32:47;;;;;;;5.93;3.37;;;10.40;99.90;;;;;;4990928;28;20584;-88
2023/05/28 02:35:14;;;;;;;9.63;4.20;;;10.40;99.90;;;;;;5007949;28;20325;-87
2023/05/28 02:37:39;;;;;;;7.80;5.17;;;10.40;99.90;;;;;;4974958;28;20223;-88
2023/05/28 02:40:06;;;;;;;4.60;3.80;;;10.30;99.90;;;;;;4991666;28;20211;-87
2023/05/28 02:42:32;;;;;;;5.40;3.83;;;10.20;99.90;;;;;;4976137;28;20195;-87
2023/05/28 02:45:00;;;;;;;5.30;4.50;;;10.20;99.90;;;;;;4974831;28;20207;-87
2023/05/28 02:47:26;;;;;;;10.80;3.93;;;10.30;99.90;;;;;;4974886;28;20222;-88
2023/05/28 02:49:52;;;;;;;6.57;3.67;;;10.30;99.90;;;;;;4991124;28;20223;-87
2023/05/28 02:52:18;;;;;;;9.47;4.17;;;10.30;99.90;;;;;;4974708;28;20211;-88
2023/05/28 02:54:43;;;;;;;4.47;3.93;;;10.30;99.90;;;;;;4992026;28;20180;-88
2023/05/28 02:57:09;;;;;;;9.33;3.90;;;10.40;99.90;;;;;;4961420;28;20585;-87
2023/05/28 02:59:35;;;;;;;4.73;4.20;;;10.40;99.90;;;;;;4978061;28;20234;-88
2023/05/28 03:02:00;;;;;;;6.93;4.50;;;10.30;99.90;;;;;;4994064;28;20689;-87
2023/05/28 03:04:26;;;;;;;10.27;3.23;;;10.30;99.90;;;;;;4994160;28;20808;-87
2023/05/28 03:06:52;;;;;;;6.27;3.73;;;10.30;99.90;;;;;;4962111;28;20625;-87
2023/05/28 03:09:18;;;;;;;8.43;3.17;;;10.20;99.90;;;;;;4994325;28;20242;-87
2023/05/28 03:11:43;;;;;;;14.90;5.53;;;10.30;99.90;;;;;;4977903;28;20274;-88
2023/05/28 03:14:09;;;;;;;9.47;4.17;;;10.30;99.90;;;;;;4978073;28;20281;-88
2023/05/28 03:16:36;;;;;;;15.10;4.37;;;10.20;99.90;;;;;;4961790;28;20211;-88
2023/05/28 03:19:02;;;;;;;5.23;3.53;;;10.20;99.90;;;;;;4962059;28;20210;-87
2023/05/28 03:21:28;;;;;;;7.60;4.40;;;10.20;99.90;;;;;;4995217;28;20270;-87
2023/05/28 03:23:54;;;;;;;7.57;3.17;;;10.20;99.90;;;;;;5011964;28;20852;-87
2023/05/28 03:26:21;;;;;;;10.10;4.07;;;10.20;99.90;;;;;;4995075;28;20245;-87
2023/05/28 03:28:47;;;;;;;8.50;4.37;;;10.30;99.90;;;;;;4962875;28;20234;-87
2023/05/28 03:31:13;;;;;;;6.23;4.30;;;10.20;99.90;;;;;;4978774;28;20183;-88
2023/05/28 03:33:38;;;;;;;4.47;3.53;;;10.00;99.90;;;;;;4978868;28;20229;-87
2023/05/28 03:36:06;;;;;;;6.97;3.33;;;10.00;99.90;;;;;;4978523;28;20317;-87
2023/05/28 03:38:32;;;;;;;5.47;3.70;;;9.90;99.90;;;;;;4994909;28;20239;-87
2023/05/28 03:40:58;;;;;;;6.03;2.40;;;9.90;99.90;;;;;;4977832;28;20310;-87
2023/05/28 03:43:24;;;;;;;4.17;2.90;;;9.90;99.90;;;;;;4961610;28;20290;-85
2023/05/28 03:45:50;;;;;;;7.53;4.50;;;9.90;99.90;;;;;;4994713;28;20708;-88
2023/05/28 03:48:16;;;;;;;4.47;3.07;;;9.90;99.90;;;;;;4961912;28;20306;-86
2023/05/28 03:50:41;;;;;;;9.73;3.90;;;9.90;99.90;;;;;;5011838;28;20258;-86
2023/05/28 03:53:07;;;;;;;11.33;4.27;;;10.00;99.90;;;;;;4977914;28;20311;-86
2023/05/28 03:55:35;;;;;;;7.40;3.40;;;10.00;99.90;;;;;;4994142;28;20223;-87
2023/05/28 03:58:02;;;;;;;3.77;2.77;;;10.00;99.90;;;;;;4978019;28;20175;-87
2023/05/28 04:00:28;;;;;;;6.80;3.33;;;10.10;99.90;;;;;;5012013;28;20207;-87
2023/05/28 04:02:54;;;;;;;6.47;3.37;;;10.30;99.90;;;;;;5011408;28;20228;-87
2023/05/28 04:05:20;;;;;;;7.57;3.40;;;10.40;99.90;;;;;;4977972;28;20269;-87
2023/05/28 04:07:45;;;;;;;6.33;3.57;;;10.50;99.90;;;;;;4977010;28;20226;-87
2023/05/28 04:10:11;;;;;;;5.37;2.37;;;10.70;99.90;;;;;;4977593;28;20180;-88
2023/05/28 04:12:37;;;;;;;9.13;2.43;;;10.80;99.90;;;;;;4962442;28;20254;-87
2023/05/28 04:15:03;;;;;;;15.87;3.23;;;10.80;99.90;;;;;;4977497;28;20691;-87
2023/05/28 04:17:29;;;;;;;9.73;3.17;;;10.80;99.90;;;;;;4994218;28;20227;-88
2023/05/28 04:19:55;;;;;;;5.07;3.50;;;10.90;99.90;;;;;;4960996;28;20812;-87
2023/05/28 04:22:24;;;;;;;6.73;2.73;;;10.90;99.90;;;;;;4977812;28;20916;-87
2023/05/28 04:24:54;;;;;;;7.73;3.77;;;11.10;99.90;;;;;;4978129;28;20180;-87
2023/05/28 04:27:19;;;;;;;13.53;4.07;;;11.20;99.90;;;;;;4977857;28;20222;-87
2023/05/28 04:29:46;;;;;;;6.53;3.70;;;11.40;99.90;;;;;;5009719;28;20302;-87
2023/05/28 04:32:11;;;;;;;7.33;4.30;;;11.50;99.90;;;;;;4960033;28;20226;-87
2023/05/28 04:34:40;;;;;;;4.73;3.07;;;11.60;99.90;;;;;;4976147;28;20239;-88
2023/05/28 04:37:07;;;;;;;6.23;3.33;;;11.80;99.90;;;;;;4976631;28;20180;-87
2023/05/28 04:39:34;;;;;;;4.37;2.77;;;11.80;99.90;;;;;;5010397;28;20635;-87
2023/05/28 04:42:03;;;;;;;9.77;3.77;;;12.00;99.90;;;;;;4992486;28;20686;-87
2023/05/28 04:44:30;;;;;;;4.43;3.13;;;12.00;99.90;;;;;;4977089;28;20273;-88
2023/05/28 04:46:58;;;;;;;6.77;3.13;;;12.10;99.90;;;;;;4992991;28;20219;-87
2023/05/28 04:49:25;;;;;;;4.20;3.40;;;12.20;99.90;;;;;;4977404;28;20265;-87
2023/05/28 04:51:51;;;;;;;4.77;3.27;;;12.40;99.90;;;;;;4993657;28;20198;-87
2023/05/28 04:54:17;;;;;;;9.90;4.00;;;12.50;99.90;;;;;;4992940;28;20227;-87
2023/05/28 04:56:43;;;;;;;3.70;3.13;;;12.60;99.90;;;;;;4976372;28;20222;-88
2023/05/28 04:59:09;;;;;;;3.50;2.70;;;12.60;99.90;;;;;;4976813;28;20235;-90
2023/05/28 05:01:41;;;;;;;2.13;1.93;;;12.70;99.90;;;;;;4976585;28;20241;-88
2023/05/28 05:04:10;;;;;;;4.23;2.20;;;12.80;99.90;;;;;;4960906;28;20617;-88
2023/05/28 05:06:36;;;;;;;5.13;2.57;;;12.90;99.90;;;;;;5011048;28;20270;-88
2023/05/28 05:09:04;;;;;;;2.23;1.47;;;13.10;99.90;;;;;;4960978;28;20302;-88
2023/05/28 05:11:30;;;;;;;7.60;3.03;;;13.10;99.90;;;;;;4977314;28;20216;-89
2023/05/28 05:13:56;;;;;;;3.77;1.87;;;13.30;99.90;;;;;;4977043;28;20219;-89
2023/05/28 05:16:22;;;;;;;2.37;1.93;;;13.50;99.90;;;;;;4960732;28;20222;-89
2023/05/28 05:18:48;;;;;;;6.77;2.50;;;14.00;99.90;;;;;;5009711;28;20895;-89
2023/05/28 05:21:14;;;;;;;4.10;2.87;;;15.50;99.90;;;;;;4975100;28;20310;-87
2023/05/28 05:23:40;;;;;;;8.90;2.37;;;17.60;99.90;;;;;;5009033;28;20749;-88
2023/05/28 05:26:12;;;;;;;15.83;3.47;;;19.60;99.90;;;;;;4991641;28;20226;-88
2023/05/28 05:28:39;;;;;;;7.13;2.90;;;20.70;99.90;;;;;;4976496;28;20268;-88
2023/05/28 05:31:04;;;;;;;3.43;1.80;;;21.10;99.90;;;;;;4959376;28;20235;-88
2023/05/28 05:33:30;;;;;;;2.43;1.67;;;22.00;99.90;;;;;;4976288;28;20203;-83
2023/05/28 05:35:56;;;;;;;2.87;1.70;;;23.30;99.90;;;;;;4959009;28;20246;-85
2023/05/28 05:38:22;;;;;;;2.60;1.50;;;22.40;99.90;;;;;;4992386;28;20570;-86
2023/05/28 05:40:49;;;;;;;3.23;1.40;;;23.20;99.90;;;;;;4975525;28;20522;-85
2023/05/28 05:43:14;;;;;;;5.33;2.13;;;24.20;99.90;;;;;;4975874;28;20190;-85
2023/05/28 05:45:40;;;;;;;5.30;2.17;;;23.50;99.90;;;;;;4960183;28;20183;-84
2023/05/28 05:48:06;;;;;;;6.23;2.17;;;23.00;99.90;;;;;;4991162;28;20211;-85
2023/05/28 05:50:32;;;;;;;7.77;1.83;;;23.60;99.90;;;;;;4991969;28;20289;-86
2023/05/28 05:52:59;;;;;;;3.23;1.97;;;23.70;99.90;;;;;;4959541;28;20241;-86
2023/05/28 05:55:25;;;;;;;3.97;2.07;;;24.00;99.90;;;;;;4975809;28;20221;-86
2023/05/28 05:57:50;;;;;;;3.07;1.67;;;23.50;99.90;;;;;;4991979;28;20544;-87
2023/05/28 06:00:17;;;;;;;5.73;2.53;;;22.50;99.90;;;;;;4975169;28;20658;-85
2023/05/28 06:02:43;;;;;;;6.60;2.00;;;22.40;99.90;;;;;;4975743;28;20309;-86
2023/05/28 06:05:09;;;;;;;5.47;2.77;;;21.40;99.90;;;;;;4991643;28;20306;-86
2023/05/28 06:07:35;;;;;;;3.17;1.83;;;21.60;99.90;;;;;;4975795;28;20231;-87
2023/05/28 06:10:01;;;;;;;3.23;1.73;;;22.00;99.90;;;;;;4991855;28;20225;-85
2023/05/28 06:12:27;;;;;;;5.27;1.83;;;23.60;99.90;;;;;;4975609;28;20187;-86
2023/05/28 06:14:52;;;;;;;5.32;1.85;;;23.30;99.90;;;;;;5009028;28;20305;-86
2023/05/28 06:17:18;;;;;;;4.60;1.90;;;24.40;99.90;;;;;;4975391;28;20226;-86
2023/05/28 06:19:44;;;;;;;3.58;2.08;;;23.50;99.90;;;;;;4975201;28;20227;-87
2023/05/28 06:22:10;;;;;;;3.03;2.00;;;24.30;99.90;;;;;;4975561;28;20179;-87
2023/05/28 06:24:38;;;;;;;5.60;2.05;;;24.70;99.90;;;;;;4992088;28;20275;-87
2023/05/28 06:27:05;;;;;;;4.50;1.77;;;22.40;99.90;;;;;;5009290;28;20695;-87
2023/05/28 06:29:31;;;;;;;5.13;2.13;;;20.30;99.90;;;;;;4976073;28;20215;-86
2023/05/28 06:31:56;;;;;;;2.47;1.97;;;20.50;99.90;;;;;;5010982;28;20230;-86
2023/05/28 06:34:22;;;;;;;4.60;2.83;;;21.90;99.90;;;;;;4995452;28;20647;-86
2023/05/28 06:36:48;;;;;;;4.28;1.90;;;23.20;99.90;;;;;;4979869;28;20175;-86
2023/05/28 06:39:14;;;;;;;3.25;2.03;;;22.50;99.90;;;;;;4995707;28;20227;-88
2023/05/28 06:41:40;;;;;;;4.63;1.63;;;22.30;99.90;;;;;;5012003;28;20238;-87
2023/05/28 06:44:05;;;;;;;2.50;1.48;;;20.90;99.90;;;;;;4995322;28;20215;-86
2023/05/28 06:46:32;;;;;;;4.97;1.80;;;20.00;99.90;;;;;;4979600;28;20435;-87
2023/05/28 06:48:58;;;;;;;3.05;1.90;;;21.00;99.90;;;;;;4963358;28;20224;-85
2023/05/28 06:51:23;;;;;;;2.63;1.48;;;22.80;99.90;;;;;;4980243;28;20241;-85
2023/05/28 06:53:49;;;;;;;2.63;1.35;;;22.10;99.90;;;;;;4994736;28;20216;-82
2023/05/28 06:56:15;;;;;;;4.40;1.80;;;20.30;99.90;;;;;;4993358;28;20273;-83
2023/05/28 06:58:41;;;;;;;3.53;1.70;;;18.80;99.90;;;;;;4993607;28;20824;-83
2023/05/28 07:01:07;;;;;;;2.80;1.80;;;18.80;99.90;;;;;;4993864;28;20191;-85
2023/05/28 07:03:35;;;;;;;4.47;1.50;;;18.50;99.90;;;;;;5012092;28;20180;-86
2023/05/28 07:06:01;;;;;;;2.67;1.57;;;18.50;99.90;;;;;;4963123;28;20239;-83
2023/05/28 07:08:26;;;;;;;3.47;1.60;;;18.50;99.90;;;;;;4994261;28;20290;-84
2023/05/28 07:10:52;;;;;;;3.87;1.60;;;20.40;99.90;;;;;;4961728;28;20226;-84
2023/05/28 07:13:18;;;;;;;3.63;1.97;;;22.30;99.90;;;;;;4977549;28;20573;-84
2023/05/28 07:15:43;;;;;;;3.70;1.53;;;23.30;99.90;;;;;;4994267;28;20188;-84
2023/05/28 07:18:09;;;;;;;4.37;1.93;;;23.80;99.90;;;;;;4977569;28;20298;-84
2023/05/28 07:20:35;;;;;;;4.25;1.50;;;23.80;99.90;;;;;;4993557;28;20645;-84
2023/05/28 07:23:01;;;;;;;3.85;1.92;;;21.80;99.90;;;;;;4993411;28;20647;-84
2023/05/28 07:25:26;;;;;;;4.72;1.83;;;22.30;99.90;;;;;;4977012;28;20253;-85
2023/05/28 07:27:52;;;;;;;5.65;2.33;;;22.70;99.90;;;;;;4977976;28;20322;-85
2023/05/28 07:30:18;;;;;;;2.35;1.85;;;23.40;99.90;;;;;;4976954;28;20312;-83
2023/05/28 07:32:44;;;;;;;2.63;1.50;;;23.80;99.90;;;;;;4961064;28;20219;-84
2023/05/28 07:35:10;;;;;;;5.18;1.98;;;23.60;99.90;;;;;;4976612;28;20239;-84
2023/05/28 07:37:38;;;;;;;4.85;1.73;;;23.80;99.90;;;;;;4977263;28;20223;-83
2023/05/28 07:40:05;;;;;;;5.35;1.98;;;24.40;99.90;;;;;;4992987;28;20208;-84
2023/05/28 07:42:30;;;;;;;3.65;1.85;;;24.50;99.90;;;;;;4992335;28;20663;-85
2023/05/28 07:44:56;;;;;;;2.42;1.90;;;23.50;99.90;;;;;;4992880;28;20223;-84
2023/05/28 07:47:22;;;;;;;5.68;2.22;;;22.70;99.90;;;;;;4977035;28;20227;-86
2023/05/28 07:49:48;;;;;;;4.50;2.17;;;21.60;99.90;;;;;;4977143;28;20223;-84
2023/05/28 07:52:13;;;;;;;2.67;1.73;;;21.10;99.90;;;;;;4976050;28;20183;-85
2023/05/28 07:54:39;;;;;;;4.28;2.08;;;20.60;99.90;;;;;;4993638;28;20744;-84
2023/05/28 07:57:05;;;;;;;4.03;2.17;;;21.00;99.90;;;;;;4960431;28;20782;-84
2023/05/28 07:59:32;;;;;;;8.48;2.53;;;20.60;99.90;;;;;;5009044;28;20234;-84
2023/05/28 08:01:57;;;;;;;4.40;1.98;;;21.50;99.90;;;;;;4961291;28;20222;-84
2023/05/28 08:04:23;;;;;;;3.05;1.98;;;21.80;99.90;;;;;;4976438;28;20665;-83
2023/05/28 08:06:49;;;;;;;5.50;2.00;;;21.80;99.90;;;;;;4960698;28;20620;-84
2023/05/28 08:09:17;;;;;;;6.20;2.33;;;22.30;99.90;;;;;;4959937;28;20227;-85
2023/05/28 08:11:44;;;;;;;3.85;2.20;;;21.80;99.90;;;;;;4992587;28;20226;-85
2023/05/28 08:14:09;;;;;;;3.75;2.08;;;22.80;99.90;;;;;;4991851;28;20265;-86
2023/05/28 08:16:36;;;;;;;3.20;2.17;;;23.10;99.90;;;;;;4991555;28;20207;-86
2023/05/28 08:19:01;;;;;;;5.45;2.08;;;21.80;99.90;;;;;;4975489;28;20230;-86
2023/05/28 08:21:27;;;;;;;5.03;2.38;;;21.90;99.90;;;;;;4976513;28;20210;-82
2023/05/28 08:23:54;;;;;;;6.35;2.83;;;21.10;99.90;;;;;;4961198;28;20694;-88
2023/05/28 08:26:21;;;;;;;2.63;1.90;;;21.40;99.90;;;;;;4993549;28;20310;-85
2023/05/28 08:28:47;;;;;;;3.05;1.77;;;22.40;99.90;;;;;;5010916;28;20223;-84
2023/05/28 08:31:13;;;;;;;4.25;2.45;;;21.70;99.90;;;;;;4992645;28;20175;-86
2023/05/28 08:33:38;;;;;;;5.03;2.47;;;21.40;99.90;;;;;;5010597;28;20191;-84
2023/05/28 08:36:06;;;;;;;4.43;2.42;;;21.70;99.90;;;;;;4975740;28;20711;-84
2023/05/28 08:38:32;;;;;;;7.80;3.30;;;23.30;99.90;;;;;;4976346;28;20223;-83
2023/05/28 08:40:58;;;;;;;3.55;2.13;;;22.80;99.90;;;;;;4959250;28;20566;-84
2023/05/28 08:43:24;;;;;;;4.78;2.47;;;21.70;99.90;;;;;;4991018;28;20211;-85
2023/05/28 08:45:53;;;;;;;3.30;2.53;;;22.40;99.90;;;;;;4992324;28;20191;-88
2023/05/28 08:48:21;;;;;;;3.25;2.60;;;22.20;99.90;;;;;;4975042;28;20227;-85
2023/05/28 08:50:50;;;;;;;4.72;2.33;;;22.60;99.90;;;;;;5008367;28;20223;-83
2023/05/28 08:53:21;;;;;;;4.72;2.53;;;23.00;99.90;;;;;;4974712;28;20583;-84
2023/05/28 08:55:47;;;;;;;5.43;2.50;;;22.00;99.90;;;;;;4990994;28;20238;-82
2023/05/28 08:58:14;;;;;;;4.57;3.00;;;21.50;99.90;;;;;;4990970;28;20195;-82
2023/05/28 09:00:40;;;;;;;4.90;2.25;;;21.60;99.90;;;;;;5008834;28;20294;-82
2023/05/28 09:03:07;;;;;;;3.20;2.05;;;22.90;99.90;;;;;;5006859;28;20441;-83
2023/05/28 09:05:38;;;;;;;5.18;2.35;;;23.80;99.90;;;;;;5005937;28;20621;-83
2023/05/28 09:08:12;;;;;;;3.83;2.55;;;23.90;99.90;;;;;;5007838;28;20241;-83
2023/05/28 09:10:39;;;;;;;3.97;2.65;;;22.00;99.90;;;;;;5007857;28;20369;-82
2023/05/28 09:13:05;;;;;;;3.88;2.13;;;21.80;99.90;;;;;;4990646;28;20179;-83
2023/05/28 09:15:31;;;;;;;3.88;2.22;;;21.60;99.90;;;;;;5008579;28;20258;-82
2023/05/28 09:18:01;;;;;;;5.95;2.10;;;22.20;99.90;;;;;;4990373;28;20676;-82
2023/05/28 09:20:27;;;;;;;4.03;1.90;;;22.70;99.90;;;;;;4974692;28;20306;-83
2023/05/28 09:23:02;;;;;;;4.80;1.70;;;23.20;99.90;;;;;;4990067;28;20879;-82
2023/05/28 09:25:31;;;;;;;5.25;1.95;;;22.90;99.90;;;;;;4989880;28;20219;-83
2023/05/28 09:28:00;;;;;;;3.85;2.03;;;22.20;99.90;;;;;;5007774;28;20172;-82
2023/05/28 09:30:26;;;;;;;3.65;2.05;;;22.10;99.90;;;;;;4990332;28;20629;-83
2023/05/28 09:33:00;;;;;;;3.33;1.67;;;23.30;99.90;;;;;;4974109;28;20265;-82
2023/05/28 09:35:26;;;;;;;3.40;1.70;;;23.50;99.90;;;;;;5007685;28;20250;-84
2023/05/28 09:38:10;;;;;;;4.57;2.22;;;23.00;99.90;;;;;;4974917;28;20229;-83
2023/05/28 09:40:43;;;;;;;1.77;1.67;;;23.30;99.90;;;;;;4990228;28;20261;-84
2023/05/28 09:43:10;;;;;;;2.75;1.67;;;23.30;99.90;;;;;;5008007;28;20180;-83
2023/05/28 09:45:36;;;;;;;2.53;1.85;;;23.50;99.90;;;;;;4990453;28;20188;-82
2023/05/28 09:48:03;;;;;;;2.88;1.83;;;22.30;99.90;;;;;;5007356;28;20219;-82
2023/05/28 09:50:29;;;;;;;8.05;1.40;;;21.50;99.90;;;;;;4989489;28;20227;-83
2023/05/28 09:52:57;;;;;;;2.80;1.40;;;21.90;99.90;;;;;;4989499;28;20218;-83
2023/05/28 09:55:27;;;;;;;1.38;1.20;;;22.40;99.90;;;;;;5007255;28;20314;-83
2023/05/28 09:58:03;;;;;;;1.98;1.77;;;21.70;99.90;;;;;;4990543;28;20175;-81
2023/05/28 10:00:34;;;;;;;2.92;1.50;;;22.00;99.90;;;;;;5007161;28;20226;-82
2023/05/28 10:03:28;;;;;;;4.72;2.60;;;21.50;99.90;;;;;;4989410;28;20555;-82
2023/05/28 10:06:02;;;;;;;3.42;2.00;;;22.30;99.90;;;;;;5006511;28;20718;-82
2023/05/28 10:08:28;;;;;;;2.67;1.50;;;21.90;99.90;;;;;;4990124;28;20223;-83
2023/05/28 10:10:55;;;;;;;5.28;1.88;;;22.70;99.90;;;;;;4990448;28;20310;-82
2023/05/28 10:13:22;;;;;;;4.43;2.10;;;22.60;99.90;;;;;;5006550;28;20290;-81
2023/05/28 10:15:50;;;;;;;4.85;1.73;;;21.70;99.90;;;;;;5007886;28;20625;-82
2023/05/28 10:18:17;;;;;;;6.20;2.35;;;21.60;99.90;;;;;;4989844;28;20215;-83
2023/05/28 10:20:43;;;;;;;3.75;2.63;;;22.30;99.90;;;;;;4989093;28;20231;-82
2023/05/28 10:23:09;;;;;;;4.53;2.15;;;22.60;99.90;;;;;;4973160;28;20591;-82
2023/05/28 10:25:36;;;;;;;6.18;2.45;;;22.40;99.90;;;;;;4973724;28;20226;-83
2023/05/28 10:28:02;;;;;;;2.35;1.73;;;21.90;99.90;;;;;;4973127;28;20180;-82
2023/05/28 10:30:35;;;;;;;4.72;2.55;;;21.40;99.90;;;;;;4990155;28;20560;-82
2023/05/28 10:33:07;;;;;;;2.57;2.30;;;20.80;99.90;;;;;;5006796;28;20303;-83
2023/05/28 10:35:35;;;;;;;2.38;1.88;;;21.50;99.90;;;;;;4989143;28;20245;-82
2023/05/28 10:38:08;;;;;;;2.75;1.95;;;21.10;99.90;;;;;;5007051;28;20281;-81
2023/05/28 10:40:39;;;;;;;3.93;2.00;;;21.30;99.90;;;;;;4957438;28;20631;-82
2023/05/28 10:43:25;;;;;;;5.37;2.10;;;21.50;99.90;;;;;;5006737;28;20179;-83
2023/05/28 10:45:55;;;;;;;6.13;2.00;;;20.90;99.90;;;;;;4989813;28;20657;-81
2023/05/28 10:48:21;;;;;;;3.57;1.50;;;20.90;99.90;;;;;;4973899;28;20204;-81
2023/05/28 10:50:58;;;;;;;3.23;1.87;;;20.90;99.90;;;;;;4973044;28;20305;-83
2023/05/28 10:53:25;;;;;;;7.30;2.47;;;20.90;99.90;;;;;;4989396;28;20223;-81
2023/05/28 10:55:55;;;;;;;2.40;1.47;;;20.80;99.90;;;;;;5006687;28;20239;-81
2023/05/28 10:58:35;;;;;;;2.13;1.67;;;20.80;99.90;;;;;;4988876;28;20211;-82
2023/05/28 11:01:19;;;;;;;1.83;1.45;;;20.80;99.90;;;;;;5006436;28;20192;-82
2023/05/28 11:03:54;;;;;;;3.70;2.07;;;20.80;99.90;;;;;;4991476;28;20271;-82
2023/05/28 11:06:21;;;;;;;3.60;1.57;;;20.50;99.90;;;;;;5006435;28;20223;-83
2023/05/28 11:08:48;;;;;;;2.37;1.13;;;20.70;99.90;;;;;;4956706;28;20251;-83
2023/05/28 11:11:16;;;;;;;1.70;1.20;;;20.50;99.90;;;;;;4989397;28;20294;-82
2023/05/28 11:13:47;;;;;;;1.53;1.37;;;20.60;99.90;;;;;;4988752;28;20246;-82
2023/05/28 11:16:15;;;;;;;4.03;1.97;;;20.20;99.90;;;;;;4988855;28;20238;-83
2023/05/28 11:19:01;;;;;;;5.93;1.83;;;20.50;99.90;;;;;;4994028;28;20193;-84
2023/05/28 11:21:27;;;;;;;3.47;2.17;;;20.20;99.90;;;;;;5011062;28;20211;-81
2023/05/28 11:24:03;;;;;;;6.20;2.00;;;20.00;99.90;;;;;;4960600;28;20280;-82
2023/05/28 11:26:31;;;;;;;3.43;1.60;;;20.20;99.90;;;;;;5010268;28;20233;-84
2023/05/28 11:28:57;;;;;;;3.77;2.03;;;20.10;99.90;;;;;;5010055;28;20227;-82
2023/05/28 11:31:23;;;;;;;4.70;1.80;;;20.00;99.90;;;;;;4976577;28;20215;-83
2023/05/28 11:33:49;;;;;;;6.20;2.20;;;19.80;99.90;;;;;;4978085;28;20267;-82
2023/05/28 11:36:15;;;;;;;7.37;2.70;;;19.50;99.90;;;;;;4975863;28;20318;-82
2023/05/28 11:38:41;;;;;;;6.83;2.00;;;19.60;99.90;;;;;;4992274;28;20219;-81
2023/05/28 11:41:07;;;;;;;7.00;2.10;;;19.80;99.90;;;;;;5009544;28;20311;-82
2023/05/28 11:43:32;;;;;;;2.73;2.03;;;19.70;99.90;;;;;;5009627;28;20573;-81
2023/05/28 11:46:00;;;;;;;5.23;2.00;;;19.60;99.90;;;;;;4976205;28;20187;-82
2023/05/28 11:48:27;;;;;;;3.07;2.83;;;19.40;99.90;;;;;;4992730;28;20198;-83
2023/05/28 11:51:03;;;;;;;5.37;1.87;;;19.40;99.90;;;;;;5009866;28;20231;-82
2023/05/28 11:53:42;;;;;;;3.17;1.80;;;19.40;99.90;;;;;;4976475;28;20223;-82
2023/05/28 11:56:10;;;;;;;2.37;1.77;;;19.40;99.90;;;;;;4976886;28;20285;-83
2023/05/28 11:58:41;;;;;;;4.63;1.77;;;19.40;99.90;;;;;;4961079;28;20223;-81
2023/05/28 12:01:08;;;;;;;4.17;1.80;;;19.30;99.90;;;;;;4993911;28;20230;-85
2023/05/28 12:03:34;;;;;;;9.07;2.37;;;19.40;99.90;;;;;;4992813;28;20196;-83
2023/05/28 12:06:00;;;;;;;3.90;1.97;;;19.10;99.90;;;;;;5010045;28;20684;-85
2023/05/28 12:08:27;;;;;;;4.77;2.23;;;18.90;99.90;;;;;;4976755;28;20250;-83
2023/05/28 12:10:58;;;;;;;7.47;2.00;;;18.90;99.90;;;;;;4976740;28;20290;-84
2023/05/28 12:13:34;;;;;;;2.17;1.70;;;18.80;99.90;;;;;;5010363;28;20215;-84
2023/05/28 12:16:26;;;;;;;4.70;2.47;;;18.70;99.90;;;;;;5008264;28;20179;-85
2023/05/28 12:19:00;;;;;;;4.80;2.23;;;18.60;99.90;;;;;;4971303;28;20259;-83
2023/05/28 12:21:25;;;;;;;4.57;2.13;;;18.60;99.90;;;;;;4976040;28;20208;-83
2023/05/28 12:23:55;;;;;;;8.20;2.53;;;18.40;99.90;;;;;;4975110;28;20246;-84
2023/05/28 12:26:23;;;;;;;3.73;1.83;;;18.80;99.90;;;;;;4990532;28;20227;-84
2023/05/28 12:28:49;;;;;;;5.40;1.60;;;18.80;99.90;;;;;;4957552;28;20422;-85
2023/05/28 12:31:26;;;;;;;5.10;1.70;;;18.90;99.90;;;;;;4974462;28;20175;-85
2023/05/28 12:34:00;;;;;;;3.70;2.17;;;18.60;99.90;;;;;;4976176;28;20172;-85
2023/05/28 12:36:29;;;;;;;6.60;2.30;;;18.80;99.90;;;;;;4974933;28;20326;-83
2023/05/28 12:38:55;;;;;;;6.93;1.67;;;18.90;99.90;;;;;;5005080;28;20245;-84
2023/05/28 12:41:25;;;;;;;3.10;1.60;;;18.90;99.90;;;;;;4974847;28;20227;-83
2023/05/28 12:43:57;;;;;;;7.00;2.33;;;18.90;99.90;;;;;;4974476;28;20680;-84
2023/05/28 12:46:26;;;;;;;4.47;2.07;;;18.80;99.90;;;;;;4973316;28;20218;-84